createdAt,value
2023-04-24T00:05:13.511Z,100.0
2023-04-24T00:10:45.347Z,100.0
2023-04-24T00:16:17.004Z,100.0
2023-04-24T00:21:48.749Z,100.0
2023-04-24T00:27:20.385Z,100.0
2023-04-24T00:32:52.224Z,100.0
2023-04-24T00:38:23.886Z,100.0
2023-04-24T00:43:55.674Z,100.0
2023-04-24T00:49:27.384Z,99.7
2023-04-24T00:54:59.092Z,99.28
2023-04-24T01:00:35.221Z,98.39
2023-04-24T01:06:06.880Z,98.51
2023-04-24T01:11:38.661Z,97.33
2023-04-24T01:17:10.415Z,97.51
2023-04-24T01:22:42.058Z,97.28
2023-04-24T01:28:13.800Z,97.67
2023-04-24T01:33:45.472Z,98.1
2023-04-24T01:39:17.179Z,97.66
2023-04-24T01:44:48.918Z,97.27
2023-04-24T01:50:20.694Z,97.81
2023-04-24T01:55:52.432Z,98.15
2023-04-24T02:01:30.703Z,99.24
2023-04-24T02:07:02.372Z,100.0
2023-04-24T02:12:34.177Z,100.0
2023-04-24T02:18:05.905Z,100.0
2023-04-24T02:23:37.490Z,100.0
2023-04-24T02:29:09.141Z,100.0
2023-04-24T02:34:40.867Z,100.0
2023-04-24T02:40:12.983Z,100.0
2023-04-24T02:45:44.280Z,100.0
2023-04-24T02:51:16.114Z,100.0
2023-04-24T02:56:47.848Z,100.0
2023-04-24T03:02:24.203Z,100.0
2023-04-24T03:07:55.607Z,100.0
2023-04-24T03:13:27.341Z,100.0
2023-04-24T03:18:59.148Z,100.0
2023-04-24T03:24:30.779Z,100.0
2023-04-24T03:30:02.617Z,100.0
2023-04-24T03:35:34.174Z,100.0
2023-04-24T03:41:05.982Z,100.0
2023-04-24T03:46:37.917Z,100.0
2023-04-24T03:52:09.354Z,100.0
2023-04-24T03:57:41.118Z,100.0
2023-04-24T04:03:17.546Z,100.0
2023-04-24T04:08:48.928Z,100.0
2023-04-24T04:14:20.872Z,100.0
2023-04-24T04:19:52.329Z,100.0
2023-04-24T04:25:24.293Z,100.0
2023-04-24T04:30:55.917Z,100.0
2023-04-24T04:36:27.555Z,100.0
2023-04-24T04:41:59.333Z,100.0
2023-04-24T04:47:31.190Z,100.0
2023-04-24T04:53:02.757Z,100.0
2023-04-24T04:58:34.678Z,100.0
2023-04-24T05:04:11.034Z,100.0
2023-04-24T05:09:42.840Z,100.0
2023-04-24T05:15:14.135Z,100.0
2023-04-24T05:20:45.844Z,100.0
2023-04-24T05:26:17.621Z,100.0
2023-04-24T05:31:49.418Z,100.0
2023-04-24T05:37:21.009Z,100.0
2023-04-24T05:42:52.678Z,100.0
2023-04-24T05:48:24.517Z,100.0
2023-04-24T05:53:56.179Z,100.0
2023-04-24T05:59:27.912Z,100.0
2023-04-24T06:05:04.371Z,100.0
2023-04-24T06:10:35.783Z,100.0
2023-04-24T06:16:07.684Z,100.0
2023-04-24T06:21:39.294Z,100.0
2023-04-24T06:27:11.381Z,100.0
2023-04-24T06:32:42.901Z,100.0
2023-04-24T06:38:14.851Z,100.0
2023-04-24T06:43:46.266Z,100.0
2023-04-24T06:49:18.085Z,99.83
2023-04-24T06:54:49.714Z,97.33
2023-04-24T07:00:21.462Z,98.47
2023-04-24T07:05:57.607Z,94.76
2023-04-24T07:11:29.366Z,90.94
2023-04-24T07:17:01.062Z,91.23
2023-04-24T07:22:32.731Z,92.72
2023-04-24T07:28:04.638Z,91.65
2023-04-24T07:33:36.325Z,91.75
2023-04-24T07:39:07.947Z,88.42
2023-04-24T07:44:39.641Z,88.82
2023-04-24T07:50:11.343Z,85.36
2023-04-24T07:55:43.119Z,86.25
2023-04-24T08:01:14.872Z,86.14
2023-04-24T08:06:51.012Z,85.79
2023-04-24T08:12:22.665Z,85.1
2023-04-24T08:17:54.516Z,86.75
2023-04-24T08:23:26.125Z,85.58
2023-04-24T08:28:58.349Z,83.26
2023-04-24T08:34:29.494Z,83.36
2023-04-24T08:40:01.956Z,83.02
2023-04-24T08:45:33.088Z,80.2
2023-04-24T08:51:04.719Z,78.6
2023-04-24T08:56:36.601Z,80.46
2023-04-24T09:02:08.366Z,79.46
2023-04-24T09:07:44.316Z,79.96
2023-04-24T09:13:15.992Z,80.2
2023-04-24T09:18:47.671Z,82.11
2023-04-24T09:24:19.486Z,83.76
2023-04-24T09:29:51.186Z,85.94
2023-04-24T09:35:23.023Z,83.92
2023-04-24T09:40:54.710Z,82.95
2023-04-24T09:46:26.943Z,81.4
2023-04-24T09:51:58.127Z,81.21
2023-04-24T09:57:29.877Z,80.64
2023-04-24T10:03:02.029Z,78.17
2023-04-24T10:08:37.762Z,80.17
2023-04-24T10:14:09.533Z,76.64
2023-04-24T10:19:41.291Z,74.72
2023-04-24T10:25:12.878Z,74.73
2023-04-24T10:30:44.901Z,77.63
2023-04-24T10:36:16.395Z,76.33
2023-04-24T10:41:48.082Z,76.56
2023-04-24T10:47:19.769Z,76.78
2023-04-24T10:52:51.347Z,77.06
2023-04-24T10:58:23.209Z,76.92
2023-04-24T11:03:55.108Z,77.56
2023-04-24T11:09:30.999Z,77.26
2023-04-24T11:15:03.836Z,77.35
2023-04-24T11:20:34.458Z,80.33
2023-04-24T11:26:06.209Z,78.65
2023-04-24T11:31:38.020Z,77.69
2023-04-24T11:37:09.550Z,75.19
2023-04-24T11:42:41.396Z,76.89
2023-04-24T11:48:13.030Z,79.73
2023-04-24T11:53:47.693Z,79.47
2023-04-24T11:59:16.697Z,76.46
2023-04-24T12:04:49.618Z,77.06
2023-04-24T12:10:24.399Z,75.09
2023-04-24T12:15:56.287Z,76.88
2023-04-24T12:21:27.828Z,78.63
2023-04-24T12:26:59.914Z,75.8
2023-04-24T12:32:31.482Z,77.27
2023-04-24T12:38:03.129Z,76.9
2023-04-24T12:43:34.812Z,78.77
2023-04-24T12:49:06.595Z,79.01
2023-04-24T12:54:38.334Z,81.2
2023-04-24T13:00:10.103Z,93.36
2023-04-24T13:05:41.921Z,86.16
2023-04-24T13:11:19.854Z,83.56
2023-04-24T13:16:51.871Z,83.69
2023-04-24T13:22:23.176Z,82.46
2023-04-24T13:27:54.962Z,82.37
2023-04-24T13:33:26.701Z,82.2
2023-04-24T13:38:58.942Z,83.54
2023-04-24T13:44:30.125Z,85.12
2023-04-24T13:50:01.914Z,81.51
2023-04-24T13:55:33.672Z,80.9
2023-04-24T14:01:05.382Z,83.08
2023-04-24T14:06:37.024Z,83.11
2023-04-24T14:12:15.207Z,82.3
2023-04-24T14:17:46.963Z,83.28
2023-04-24T14:23:19.157Z,82.8
2023-04-24T14:28:52.476Z,80.35
2023-04-24T14:34:22.076Z,82.73
2023-04-24T14:40:29.646Z,81.94
2023-04-24T14:45:25.506Z,81.42
2023-04-24T14:50:57.238Z,78.34
2023-04-24T14:56:29.066Z,79.4
2023-04-24T15:02:16.740Z,78.47
2023-04-24T15:07:32.462Z,78.87
2023-04-24T15:13:08.750Z,79.06
2023-04-24T15:18:40.313Z,78.48
2023-04-24T15:24:12.033Z,79.93
2023-04-24T15:29:43.708Z,81.48
2023-04-24T15:35:15.467Z,83.3
2023-04-24T15:40:47.172Z,82.91
2023-04-24T15:46:18.922Z,81.8
2023-04-24T15:51:50.703Z,81.23
2023-04-24T15:57:22.370Z,80.86
2023-04-24T16:02:54.303Z,80.76
2023-04-24T16:08:25.746Z,80.49
2023-04-24T16:14:01.905Z,79.81
2023-04-24T16:19:33.619Z,79.09
2023-04-24T16:25:05.315Z,78.86
2023-04-24T16:30:37.180Z,77.06
2023-04-24T16:36:08.814Z,77.76
2023-04-24T16:41:40.872Z,77.57
2023-04-24T16:47:12.255Z,76.31
2023-04-24T16:52:44.070Z,77.61
2023-04-24T16:58:15.744Z,77.87
2023-04-24T17:03:47.729Z,76.61
2023-04-24T17:09:19.165Z,76.07
2023-04-24T17:14:55.376Z,76.8
2023-04-24T17:20:30.346Z,76.52
2023-04-24T17:25:59.121Z,77.34
2023-04-24T17:31:30.514Z,76.42
2023-04-24T17:37:02.187Z,76.68
2023-04-24T17:42:33.883Z,76.27
2023-04-24T17:48:05.808Z,76.69
2023-04-24T17:53:37.337Z,76.96
2023-04-24T17:59:09.091Z,78.51
2023-04-24T18:04:41.130Z,78.55
2023-04-24T18:10:12.525Z,78.7
2023-04-24T18:15:48.901Z,79.73
2023-04-24T18:21:20.396Z,79.91
2023-04-24T18:26:52.055Z,81.37
2023-04-24T18:32:23.865Z,81.97
2023-04-24T18:37:55.664Z,81.41
2023-04-24T18:43:27.205Z,82.23
2023-04-24T18:48:58.946Z,82.79
2023-04-24T18:54:30.714Z,82.14
2023-04-24T19:00:02.702Z,82.42
2023-04-24T19:05:34.285Z,82.85
2023-04-24T19:11:05.927Z,82.68
2023-04-24T19:16:42.145Z,82.95
2023-04-24T19:22:13.796Z,83.37
2023-04-24T19:27:45.504Z,83.58
2023-04-24T19:33:17.378Z,83.48
2023-04-24T19:38:49.357Z,82.99
2023-04-24T19:44:20.659Z,83.07
2023-04-24T19:49:52.629Z,83.94
2023-04-24T19:55:24.117Z,84.38
2023-04-24T20:00:55.952Z,84.27
2023-04-24T20:06:27.643Z,86.07
2023-04-24T20:11:59.310Z,85.07
2023-04-24T20:17:37.492Z,85.71
2023-04-24T20:23:09.270Z,85.61
2023-04-24T20:28:40.969Z,86.41
2023-04-24T20:34:12.687Z,86.95
2023-04-24T20:39:44.320Z,86.93
2023-04-24T20:45:16.078Z,87.69
2023-04-24T20:50:47.795Z,87.36
2023-04-24T20:56:19.529Z,87.4
2023-04-24T21:01:51.485Z,88.01
2023-04-24T21:07:22.875Z,88.51
2023-04-24T21:12:54.662Z,88.26
2023-04-24T21:18:32.698Z,88.65
2023-04-24T21:24:04.484Z,89.2
2023-04-24T21:29:36.142Z,89.51
2023-04-24T21:35:07.967Z,89.51
2023-04-24T21:40:39.749Z,89.27
2023-04-24T21:46:11.472Z,89.61
2023-04-24T21:51:43.095Z,89.75
2023-04-24T21:57:14.838Z,90.44
2023-04-24T22:02:46.833Z,91.0
2023-04-24T22:08:18.197Z,91.58
2023-04-24T22:13:50.540Z,91.68
2023-04-24T22:19:26.232Z,91.64
2023-04-24T22:24:57.897Z,91.19
2023-04-24T22:30:29.650Z,90.87
2023-04-24T22:36:01.346Z,91.64
2023-04-24T22:41:33.059Z,91.31
2023-04-24T22:47:04.866Z,91.06
2023-04-24T22:52:36.850Z,90.85
2023-04-24T22:58:08.158Z,91.86
2023-04-24T23:03:40.496Z,92.9
2023-04-24T23:09:11.635Z,92.97
2023-04-24T23:14:43.346Z,91.53
2023-04-24T23:20:21.544Z,92.46
2023-04-24T23:25:53.237Z,94.78
2023-04-24T23:31:25.000Z,95.67
2023-04-24T23:36:57.025Z,99.45
2023-04-24T23:42:28.418Z,100.0
2023-04-24T23:48:00.268Z,100.0
2023-04-24T23:53:31.791Z,100.0
2023-04-24T23:59:03.379Z,99.68
